sensor_id;sensor_type;location;lat;lon;timestamp;P1;durP1;ratioP1;P2;durP2;ratioP2
15818;SDS011;8010;53.986;12.106;2022-10-16T00:01:21;3.87;;;2.90;;
15818;SDS011;8010;53.986;12.106;2022-10-16T00:03:51;2.53;;;2.33;;
15818;SDS011;8010;53.986;12.106;2022-10-16T00:06:18;2.10;;;1.90;;
15818;SDS011;8010;53.986;12.106;2022-10-16T00:08:45;3.00;;;2.50;;
15818;SDS011;8010;53.986;12.106;2022-10-16T00:11:13;3.37;;;2.40;;
15818;SDS011;8010;53.986;12.106;2022-10-16T00:13:44;4.00;;;2.50;;
15818;SDS011;8010;53.986;12.106;2022-10-16T00:16:11;3.10;;;2.70;;
15818;SDS011;8010;53.986;12.106;2022-10-16T00:18:38;2.93;;;2.63;;
15818;SDS011;8010;53.986;12.106;2022-10-16T00:21:05;3.30;;;2.93;;
15818;SDS011;8010;53.986;12.106;2022-10-16T00:23:33;3.93;;;2.73;;
15818;SDS011;8010;53.986;12.106;2022-10-16T00:26:00;3.97;;;2.77;;
15818;SDS011;8010;53.986;12.106;2022-10-16T00:28:28;7.10;;;3.07;;
15818;SDS011;8010;53.986;12.106;2022-10-16T00:30:54;3.23;;;2.93;;
15818;SDS011;8010;53.986;12.106;2022-10-16T00:33:20;3.87;;;3.47;;
15818;SDS011;8010;53.986;12.106;2022-10-16T00:35:46;3.60;;;3.30;;
15818;SDS011;8010;53.986;12.106;2022-10-16T00:38:12;3.77;;;3.30;;
15818;SDS011;8010;53.986;12.106;2022-10-16T00:40:37;3.37;;;3.07;;
15818;SDS011;8010;53.986;12.106;2022-10-16T00:43:09;5.27;;;3.27;;
15818;SDS011;8010;53.986;12.106;2022-10-16T00:45:37;4.17;;;3.40;;
15818;SDS011;8010;53.986;12.106;2022-10-16T00:48:03;5.80;;;3.53;;
15818;SDS011;8010;53.986;12.106;2022-10-16T00:50:30;5.27;;;3.47;;
15818;SDS011;8010;53.986;12.106;2022-10-16T00:52:58;5.37;;;3.30;;
15818;SDS011;8010;53.986;12.106;2022-10-16T00:55:25;4.00;;;3.60;;
15818;SDS011;8010;53.986;12.106;2022-10-16T00:57:52;7.40;;;4.33;;
15818;SDS011;8010;53.986;12.106;2022-10-16T01:00:23;4.77;;;4.27;;
15818;SDS011;8010;53.986;12.106;2022-10-16T01:02:57;4.30;;;3.90;;
15818;SDS011;8010;53.986;12.106;2022-10-16T01:05:42;5.23;;;4.33;;
15818;SDS011;8010;53.986;12.106;2022-10-16T01:08:18;5.00;;;4.10;;
15818;SDS011;8010;53.986;12.106;2022-10-16T01:10:57;5.53;;;4.43;;
15818;SDS011;8010;53.986;12.106;2022-10-16T01:13:33;5.10;;;4.40;;
15818;SDS011;8010;53.986;12.106;2022-10-16T01:16:06;5.97;;;4.70;;
15818;SDS011;8010;53.986;12.106;2022-10-16T01:21:27;5.97;;;5.10;;
15818;SDS011;8010;53.986;12.106;2022-10-16T01:24:03;5.83;;;5.03;;
15818;SDS011;8010;53.986;12.106;2022-10-16T01:29:53;8.60;;;5.20;;
15818;SDS011;8010;53.986;12.106;2022-10-16T01:32:23;6.20;;;5.37;;
15818;SDS011;8010;53.986;12.106;2022-10-16T01:35:05;8.17;;;5.30;;
15818;SDS011;8010;53.986;12.106;2022-10-16T01:40:27;8.83;;;5.57;;
15818;SDS011;8010;53.986;12.106;2022-10-16T01:42:56;5.87;;;4.80;;
15818;SDS011;8010;53.986;12.106;2022-10-16T01:45:26;5.73;;;4.63;;
15818;SDS011;8010;53.986;12.106;2022-10-16T01:47:54;4.70;;;4.27;;
15818;SDS011;8010;53.986;12.106;2022-10-16T01:50:21;4.60;;;4.07;;
15818;SDS011;8010;53.986;12.106;2022-10-16T01:52:49;5.00;;;4.07;;
15818;SDS011;8010;53.986;12.106;2022-10-16T01:55:22;5.37;;;4.20;;
15818;SDS011;8010;53.986;12.106;2022-10-16T01:57:53;4.13;;;3.73;;
15818;SDS011;8010;53.986;12.106;2022-10-16T02:00:21;5.10;;;3.80;;
15818;SDS011;8010;53.986;12.106;2022-10-16T02:02:48;4.03;;;3.63;;
15818;SDS011;8010;53.986;12.106;2022-10-16T02:05:26;5.20;;;3.37;;
15818;SDS011;8010;53.986;12.106;2022-10-16T02:07:56;3.73;;;3.33;;
15818;SDS011;8010;53.986;12.106;2022-10-16T02:10:21;5.50;;;3.00;;
15818;SDS011;8010;53.986;12.106;2022-10-16T02:12:50;5.43;;;2.70;;
15818;SDS011;8010;53.986;12.106;2022-10-16T02:15:26;3.90;;;3.40;;
15818;SDS011;8010;53.986;12.106;2022-10-16T02:17:52;4.30;;;2.63;;
15818;SDS011;8010;53.986;12.106;2022-10-16T02:20:18;5.37;;;3.30;;
15818;SDS011;8010;53.986;12.106;2022-10-16T02:22:50;3.43;;;2.70;;
15818;SDS011;8010;53.986;12.106;2022-10-16T02:25:36;3.50;;;2.87;;
15818;SDS011;8010;53.986;12.106;2022-10-16T02:28:08;3.17;;;2.87;;
15818;SDS011;8010;53.986;12.106;2022-10-16T02:31:00;5.27;;;3.13;;
15818;SDS011;8010;53.986;12.106;2022-10-16T02:33:29;6.00;;;3.87;;
15818;SDS011;8010;53.986;12.106;2022-10-16T02:35:56;7.83;;;3.80;;
15818;SDS011;8010;53.986;12.106;2022-10-16T02:38:22;5.40;;;3.83;;
15818;SDS011;8010;53.986;12.106;2022-10-16T02:40:49;4.70;;;4.03;;
15818;SDS011;8010;53.986;12.106;2022-10-16T02:43:15;5.10;;;3.93;;
15818;SDS011;8010;53.986;12.106;2022-10-16T02:45:41;5.60;;;4.60;;
15818;SDS011;8010;53.986;12.106;2022-10-16T02:48:07;5.00;;;3.93;;
15818;SDS011;8010;53.986;12.106;2022-10-16T02:50:33;6.70;;;4.07;;
15818;SDS011;8010;53.986;12.106;2022-10-16T02:52:58;5.40;;;4.27;;
15818;SDS011;8010;53.986;12.106;2022-10-16T02:55:24;7.90;;;3.87;;
15818;SDS011;8010;53.986;12.106;2022-10-16T02:57:50;4.20;;;3.80;;
15818;SDS011;8010;53.986;12.106;2022-10-16T03:00:16;6.23;;;4.00;;
15818;SDS011;8010;53.986;12.106;2022-10-16T03:02:42;5.57;;;3.97;;
15818;SDS011;8010;53.986;12.106;2022-10-16T03:05:08;4.83;;;3.80;;
15818;SDS011;8010;53.986;12.106;2022-10-16T03:07:34;4.50;;;3.70;;
15818;SDS011;8010;53.986;12.106;2022-10-16T03:10:00;3.63;;;3.33;;
15818;SDS011;8010;53.986;12.106;2022-10-16T03:12:28;6.60;;;3.87;;
15818;SDS011;8010;53.986;12.106;2022-10-16T03:14:55;6.17;;;3.90;;
15818;SDS011;8010;53.986;12.106;2022-10-16T03:17:21;5.53;;;4.50;;
15818;SDS011;8010;53.986;12.106;2022-10-16T03:19:47;5.53;;;3.83;;
15818;SDS011;8010;53.986;12.106;2022-10-16T03:22:13;6.00;;;4.03;;
15818;SDS011;8010;53.986;12.106;2022-10-16T03:24:38;5.97;;;3.70;;
15818;SDS011;8010;53.986;12.106;2022-10-16T03:27:04;5.60;;;4.00;;
15818;SDS011;8010;53.986;12.106;2022-10-16T03:29:30;5.23;;;4.33;;
15818;SDS011;8010;53.986;12.106;2022-10-16T03:31:57;6.63;;;4.13;;
15818;SDS011;8010;53.986;12.106;2022-10-16T03:34:22;5.20;;;3.83;;
15818;SDS011;8010;53.986;12.106;2022-10-16T03:36:48;4.37;;;3.47;;
15818;SDS011;8010;53.986;12.106;2022-10-16T03:39:13;4.57;;;3.90;;
15818;SDS011;8010;53.986;12.106;2022-10-16T03:41:39;5.23;;;4.07;;
15818;SDS011;8010;53.986;12.106;2022-10-16T03:44:04;8.63;;;4.67;;
15818;SDS011;8010;53.986;12.106;2022-10-16T03:46:30;6.07;;;4.10;;
15818;SDS011;8010;53.986;12.106;2022-10-16T03:48:56;5.23;;;3.80;;
15818;SDS011;8010;53.986;12.106;2022-10-16T03:51:21;4.67;;;3.80;;
15818;SDS011;8010;53.986;12.106;2022-10-16T03:53:47;5.60;;;3.53;;
15818;SDS011;8010;53.986;12.106;2022-10-16T03:56:12;4.10;;;3.40;;
15818;SDS011;8010;53.986;12.106;2022-10-16T03:58:38;5.47;;;3.53;;
15818;SDS011;8010;53.986;12.106;2022-10-16T04:01:04;6.20;;;3.40;;
15818;SDS011;8010;53.986;12.106;2022-10-16T04:03:29;5.07;;;3.03;;
15818;SDS011;8010;53.986;12.106;2022-10-16T04:05:55;8.83;;;3.33;;
15818;SDS011;8010;53.986;12.106;2022-10-16T04:08:20;4.60;;;3.20;;
15818;SDS011;8010;53.986;12.106;2022-10-16T04:10:46;4.03;;;3.53;;
15818;SDS011;8010;53.986;12.106;2022-10-16T04:13:12;3.50;;;3.00;;
15818;SDS011;8010;53.986;12.106;2022-10-16T04:15:38;4.90;;;3.40;;
15818;SDS011;8010;53.986;12.106;2022-10-16T04:18:03;5.20;;;3.33;;
15818;SDS011;8010;53.986;12.106;2022-10-16T04:20:29;4.67;;;3.30;;
15818;SDS011;8010;53.986;12.106;2022-10-16T04:22:55;4.73;;;2.97;;
15818;SDS011;8010;53.986;12.106;2022-10-16T04:25:21;3.83;;;3.00;;
15818;SDS011;8010;53.986;12.106;2022-10-16T04:27:49;4.63;;;3.20;;
15818;SDS011;8010;53.986;12.106;2022-10-16T04:30:14;4.80;;;3.17;;
15818;SDS011;8010;53.986;12.106;2022-10-16T04:32:40;3.13;;;2.83;;
15818;SDS011;8010;53.986;12.106;2022-10-16T04:35:05;6.20;;;2.97;;
15818;SDS011;8010;53.986;12.106;2022-10-16T04:37:31;4.73;;;2.93;;
15818;SDS011;8010;53.986;12.106;2022-10-16T04:39:57;4.63;;;2.80;;
15818;SDS011;8010;53.986;12.106;2022-10-16T04:42:23;6.87;;;3.50;;
15818;SDS011;8010;53.986;12.106;2022-10-16T04:44:48;5.53;;;3.00;;
15818;SDS011;8010;53.986;12.106;2022-10-16T04:47:14;4.17;;;2.90;;
15818;SDS011;8010;53.986;12.106;2022-10-16T04:49:39;7.37;;;3.07;;
15818;SDS011;8010;53.986;12.106;2022-10-16T04:52:05;5.20;;;3.23;;
15818;SDS011;8010;53.986;12.106;2022-10-16T04:54:31;4.70;;;3.13;;
15818;SDS011;8010;53.986;12.106;2022-10-16T04:56:56;5.57;;;4.70;;
15818;SDS011;8010;53.986;12.106;2022-10-16T04:59:22;3.30;;;2.87;;
15818;SDS011;8010;53.986;12.106;2022-10-16T05:01:48;5.10;;;3.23;;
15818;SDS011;8010;53.986;12.106;2022-10-16T05:04:14;3.90;;;2.67;;
15818;SDS011;8010;53.986;12.106;2022-10-16T05:06:40;8.40;;;5.00;;
15818;SDS011;8010;53.986;12.106;2022-10-16T05:09:06;4.90;;;3.70;;
15818;SDS011;8010;53.986;12.106;2022-10-16T05:11:33;5.13;;;3.63;;
15818;SDS011;8010;53.986;12.106;2022-10-16T05:13:59;3.70;;;2.77;;
15818;SDS011;8010;53.986;12.106;2022-10-16T05:16:25;4.77;;;3.50;;
15818;SDS011;8010;53.986;12.106;2022-10-16T05:18:51;4.90;;;3.20;;
15818;SDS011;8010;53.986;12.106;2022-10-16T05:21:17;3.53;;;2.87;;
15818;SDS011;8010;53.986;12.106;2022-10-16T05:23:43;5.70;;;3.20;;
15818;SDS011;8010;53.986;12.106;2022-10-16T05:26:08;3.70;;;2.60;;
15818;SDS011;8010;53.986;12.106;2022-10-16T05:28:34;3.13;;;2.73;;
15818;SDS011;8010;53.986;12.106;2022-10-16T05:31:03;3.50;;;2.37;;
15818;SDS011;8010;53.986;12.106;2022-10-16T05:33:30;7.37;;;2.40;;
15818;SDS011;8010;53.986;12.106;2022-10-16T05:35:56;3.67;;;2.57;;
15818;SDS011;8010;53.986;12.106;2022-10-16T05:38:21;3.57;;;3.10;;
15818;SDS011;8010;53.986;12.106;2022-10-16T05:40:50;3.93;;;2.87;;
15818;SDS011;8010;53.986;12.106;2022-10-16T05:43:17;5.70;;;3.00;;
15818;SDS011;8010;53.986;12.106;2022-10-16T05:45:43;3.43;;;2.70;;
15818;SDS011;8010;53.986;12.106;2022-10-16T05:48:08;3.37;;;1.90;;
15818;SDS011;8010;53.986;12.106;2022-10-16T05:50:34;2.43;;;2.10;;
15818;SDS011;8010;53.986;12.106;2022-10-16T05:52:59;3.47;;;2.10;;
15818;SDS011;8010;53.986;12.106;2022-10-16T05:55:25;2.53;;;1.67;;
15818;SDS011;8010;53.986;12.106;2022-10-16T05:57:53;3.07;;;1.80;;
15818;SDS011;8010;53.986;12.106;2022-10-16T06:00:19;3.67;;;1.90;;
15818;SDS011;8010;53.986;12.106;2022-10-16T06:02:45;2.53;;;2.23;;
15818;SDS011;8010;53.986;12.106;2022-10-16T06:05:10;5.50;;;2.53;;
15818;SDS011;8010;53.986;12.106;2022-10-16T06:07:36;4.17;;;2.07;;
15818;SDS011;8010;53.986;12.106;2022-10-16T06:10:02;3.60;;;2.27;;
15818;SDS011;8010;53.986;12.106;2022-10-16T06:12:28;4.00;;;2.83;;
15818;SDS011;8010;53.986;12.106;2022-10-16T06:14:54;3.50;;;2.17;;
15818;SDS011;8010;53.986;12.106;2022-10-16T06:17:19;5.33;;;2.20;;
15818;SDS011;8010;53.986;12.106;2022-10-16T06:19:45;2.50;;;2.30;;
15818;SDS011;8010;53.986;12.106;2022-10-16T06:22:10;4.23;;;1.93;;
15818;SDS011;8010;53.986;12.106;2022-10-16T06:24:36;2.37;;;2.00;;
15818;SDS011;8010;53.986;12.106;2022-10-16T06:27:02;2.93;;;1.77;;
15818;SDS011;8010;53.986;12.106;2022-10-16T06:29:28;1.60;;;1.50;;
15818;SDS011;8010;53.986;12.106;2022-10-16T06:31:54;3.90;;;1.80;;
15818;SDS011;8010;53.986;12.106;2022-10-16T06:34:19;3.63;;;1.73;;
15818;SDS011;8010;53.986;12.106;2022-10-16T06:36:45;2.40;;;1.50;;
15818;SDS011;8010;53.986;12.106;2022-10-16T06:39:10;4.53;;;1.90;;
15818;SDS011;8010;53.986;12.106;2022-10-16T06:41:36;2.33;;;1.63;;
15818;SDS011;8010;53.986;12.106;2022-10-16T06:44:05;2.80;;;1.50;;
15818;SDS011;8010;53.986;12.106;2022-10-16T06:46:31;3.03;;;1.60;;
15818;SDS011;8010;53.986;12.106;2022-10-16T06:48:57;4.77;;;1.90;;
15818;SDS011;8010;53.986;12.106;2022-10-16T06:51:23;4.43;;;2.10;;
15818;SDS011;8010;53.986;12.106;2022-10-16T06:53:50;2.80;;;1.90;;
15818;SDS011;8010;53.986;12.106;2022-10-16T06:56:22;3.17;;;2.07;;
15818;SDS011;8010;53.986;12.106;2022-10-16T06:58:51;3.20;;;2.10;;
15818;SDS011;8010;53.986;12.106;2022-10-16T07:01:17;4.57;;;2.10;;
15818;SDS011;8010;53.986;12.106;2022-10-16T07:03:44;2.33;;;2.00;;
15818;SDS011;8010;53.986;12.106;2022-10-16T07:06:12;4.33;;;2.37;;
15818;SDS011;8010;53.986;12.106;2022-10-16T07:08:41;3.60;;;2.47;;
15818;SDS011;8010;53.986;12.106;2022-10-16T07:11:08;4.23;;;2.20;;
15818;SDS011;8010;53.986;12.106;2022-10-16T07:13:35;5.17;;;2.47;;
15818;SDS011;8010;53.986;12.106;2022-10-16T07:16:05;2.20;;;2.00;;
15818;SDS011;8010;53.986;12.106;2022-10-16T07:18:33;2.57;;;1.67;;
15818;SDS011;8010;53.986;12.106;2022-10-16T07:23:44;2.17;;;1.70;;
15818;SDS011;8010;53.986;12.106;2022-10-16T07:26:10;2.20;;;1.73;;
15818;SDS011;8010;53.986;12.106;2022-10-16T07:28:36;2.33;;;1.50;;
15818;SDS011;8010;53.986;12.106;2022-10-16T07:31:03;2.33;;;1.57;;
15818;SDS011;8010;53.986;12.106;2022-10-16T07:33:30;1.53;;;1.33;;
15818;SDS011;8010;53.986;12.106;2022-10-16T07:35:56;2.13;;;1.53;;
15818;SDS011;8010;53.986;12.106;2022-10-16T07:38:21;1.57;;;1.30;;
15818;SDS011;8010;53.986;12.106;2022-10-16T07:40:47;3.93;;;1.53;;
15818;SDS011;8010;53.986;12.106;2022-10-16T07:43:13;2.87;;;1.50;;
15818;SDS011;8010;53.986;12.106;2022-10-16T07:45:48;2.23;;;1.30;;
15818;SDS011;8010;53.986;12.106;2022-10-16T07:48:15;1.70;;;1.13;;
15818;SDS011;8010;53.986;12.106;2022-10-16T07:50:41;5.10;;;1.90;;
15818;SDS011;8010;53.986;12.106;2022-10-16T07:53:07;4.43;;;1.47;;
15818;SDS011;8010;53.986;12.106;2022-10-16T07:55:33;3.73;;;1.23;;
15818;SDS011;8010;53.986;12.106;2022-10-16T07:57:59;1.83;;;1.20;;
15818;SDS011;8010;53.986;12.106;2022-10-16T08:00:24;2.40;;;1.07;;
15818;SDS011;8010;53.986;12.106;2022-10-16T08:02:50;1.80;;;1.30;;
15818;SDS011;8010;53.986;12.106;2022-10-16T08:05:15;1.63;;;1.00;;
15818;SDS011;8010;53.986;12.106;2022-10-16T08:07:41;1.40;;;1.00;;
15818;SDS011;8010;53.986;12.106;2022-10-16T08:10:19;3.80;;;1.20;;
15818;SDS011;8010;53.986;12.106;2022-10-16T08:12:47;2.13;;;1.10;;
15818;SDS011;8010;53.986;12.106;2022-10-16T08:15:12;2.67;;;1.07;;
15818;SDS011;8010;53.986;12.106;2022-10-16T08:17:38;1.33;;;0.90;;
15818;SDS011;8010;53.986;12.106;2022-10-16T08:20:04;1.97;;;1.00;;
15818;SDS011;8010;53.986;12.106;2022-10-16T08:22:30;3.00;;;0.90;;
15818;SDS011;8010;53.986;12.106;2022-10-16T08:24:55;2.57;;;1.30;;
15818;SDS011;8010;53.986;12.106;2022-10-16T08:27:21;2.57;;;1.17;;
15818;SDS011;8010;53.986;12.106;2022-10-16T08:29:48;3.50;;;1.30;;
15818;SDS011;8010;53.986;12.106;2022-10-16T08:32:13;2.30;;;1.17;;
15818;SDS011;8010;53.986;12.106;2022-10-16T08:34:39;1.00;;;0.90;;
15818;SDS011;8010;53.986;12.106;2022-10-16T08:37:04;1.77;;;1.00;;
15818;SDS011;8010;53.986;12.106;2022-10-16T08:39:30;1.60;;;0.80;;
15818;SDS011;8010;53.986;12.106;2022-10-16T08:44:30;2.83;;;1.20;;
15818;SDS011;8010;53.986;12.106;2022-10-16T08:47:18;1.90;;;1.10;;
15818;SDS011;8010;53.986;12.106;2022-10-16T08:50:07;3.37;;;1.00;;
15818;SDS011;8010;53.986;12.106;2022-10-16T08:52:35;2.23;;;1.00;;
15818;SDS011;8010;53.986;12.106;2022-10-16T08:55:06;2.73;;;0.97;;
15818;SDS011;8010;53.986;12.106;2022-10-16T08:57:41;1.93;;;1.00;;
15818;SDS011;8010;53.986;12.106;2022-10-16T09:00:12;1.47;;;1.10;;
15818;SDS011;8010;53.986;12.106;2022-10-16T09:02:39;5.30;;;1.03;;
15818;SDS011;8010;53.986;12.106;2022-10-16T09:07:49;2.80;;;1.10;;
15818;SDS011;8010;53.986;12.106;2022-10-16T09:10:48;2.40;;;1.00;;
15818;SDS011;8010;53.986;12.106;2022-10-16T09:13:23;1.67;;;1.00;;
15818;SDS011;8010;53.986;12.106;2022-10-16T09:19:09;1.57;;;1.03;;
15818;SDS011;8010;53.986;12.106;2022-10-16T09:21:42;2.60;;;0.90;;
15818;SDS011;8010;53.986;12.106;2022-10-16T09:24:12;2.00;;;0.97;;
15818;SDS011;8010;53.986;12.106;2022-10-16T09:26:40;3.83;;;1.00;;
15818;SDS011;8010;53.986;12.106;2022-10-16T09:29:08;1.27;;;0.87;;
15818;SDS011;8010;53.986;12.106;2022-10-16T09:31:38;2.57;;;0.90;;
15818;SDS011;8010;53.986;12.106;2022-10-16T09:34:04;3.13;;;1.00;;
15818;SDS011;8010;53.986;12.106;2022-10-16T09:36:35;4.27;;;1.17;;
15818;SDS011;8010;53.986;12.106;2022-10-16T09:39:07;3.03;;;1.00;;
15818;SDS011;8010;53.986;12.106;2022-10-16T09:41:36;1.27;;;0.90;;
15818;SDS011;8010;53.986;12.106;2022-10-16T09:44:04;1.97;;;0.80;;
15818;SDS011;8010;53.986;12.106;2022-10-16T09:46:41;1.70;;;0.73;;
15818;SDS011;8010;53.986;12.106;2022-10-16T09:49:23;2.57;;;0.70;;
15818;SDS011;8010;53.986;12.106;2022-10-16T09:51:50;2.00;;;0.80;;
15818;SDS011;8010;53.986;12.106;2022-10-16T09:54:27;2.13;;;0.93;;
15818;SDS011;8010;53.986;12.106;2022-10-16T09:57:03;1.23;;;0.80;;
15818;SDS011;8010;53.986;12.106;2022-10-16T09:59:31;0.80;;;0.63;;
15818;SDS011;8010;53.986;12.106;2022-10-16T10:01:56;3.07;;;1.10;;
15818;SDS011;8010;53.986;12.106;2022-10-16T10:04:36;2.30;;;0.80;;
15818;SDS011;8010;53.986;12.106;2022-10-16T10:07:16;1.30;;;0.83;;
15818;SDS011;8010;53.986;12.106;2022-10-16T10:09:44;2.03;;;0.70;;
15818;SDS011;8010;53.986;12.106;2022-10-16T10:12:24;2.10;;;0.73;;
15818;SDS011;8010;53.986;12.106;2022-10-16T10:14:52;2.10;;;0.80;;
15818;SDS011;8010;53.986;12.106;2022-10-16T10:17:24;2.17;;;0.97;;
15818;SDS011;8010;53.986;12.106;2022-10-16T10:19:53;1.03;;;0.90;;
15818;SDS011;8010;53.986;12.106;2022-10-16T10:30:18;1.90;;;0.97;;
15818;SDS011;8010;53.986;12.106;2022-10-16T10:35:25;1.50;;;0.60;;
15818;SDS011;8010;53.986;12.106;2022-10-16T10:38:16;0.83;;;0.60;;
15818;SDS011;8010;53.986;12.106;2022-10-16T10:41:15;2.30;;;0.63;;
15818;SDS011;8010;53.986;12.106;2022-10-16T10:47:08;1.93;;;0.77;;
15818;SDS011;8010;53.986;12.106;2022-10-16T10:52:29;2.20;;;0.53;;
15818;SDS011;8010;53.986;12.106;2022-10-16T10:55:16;7.00;;;0.90;;
15818;SDS011;8010;53.986;12.106;2022-10-16T10:58:05;4.60;;;0.60;;
15818;SDS011;8010;53.986;12.106;2022-10-16T11:03:35;4.33;;;0.60;;
15818;SDS011;8010;53.986;12.106;2022-10-16T11:06:08;0.80;;;0.40;;
15818;SDS011;8010;53.986;12.106;2022-10-16T11:08:40;1.23;;;0.70;;
15818;SDS011;8010;53.986;12.106;2022-10-16T11:13:45;0.80;;;0.30;;
15818;SDS011;8010;53.986;12.106;2022-10-16T11:16:15;0.70;;;0.43;;
15818;SDS011;8010;53.986;12.106;2022-10-16T11:18:50;2.87;;;0.50;;
15818;SDS011;8010;53.986;12.106;2022-10-16T11:21:22;2.33;;;0.53;;
15818;SDS011;8010;53.986;12.106;2022-10-16T11:23:51;1.40;;;0.50;;
15818;SDS011;8010;53.986;12.106;2022-10-16T11:26:33;0.40;;;0.30;;
15818;SDS011;8010;53.986;12.106;2022-10-16T11:29:03;1.87;;;0.83;;
15818;SDS011;8010;53.986;12.106;2022-10-16T11:31:40;0.70;;;0.50;;
15818;SDS011;8010;53.986;12.106;2022-10-16T11:34:12;3.40;;;0.60;;
15818;SDS011;8010;53.986;12.106;2022-10-16T11:37:09;1.17;;;0.50;;
15818;SDS011;8010;53.986;12.106;2022-10-16T11:39:38;3.50;;;0.63;;
15818;SDS011;8010;53.986;12.106;2022-10-16T11:42:10;0.67;;;0.40;;
15818;SDS011;8010;53.986;12.106;2022-10-16T11:47:42;4.17;;;1.17;;
15818;SDS011;8010;53.986;12.106;2022-10-16T11:53:16;1.17;;;0.40;;
15818;SDS011;8010;53.986;12.106;2022-10-16T11:55:46;0.50;;;0.43;;
15818;SDS011;8010;53.986;12.106;2022-10-16T11:58:15;1.90;;;0.50;;
15818;SDS011;8010;53.986;12.106;2022-10-16T12:08:38;2.03;;;0.70;;
15818;SDS011;8010;53.986;12.106;2022-10-16T12:11:09;0.57;;;0.30;;
15818;SDS011;8010;53.986;12.106;2022-10-16T12:13:49;1.20;;;0.50;;
15818;SDS011;8010;53.986;12.106;2022-10-16T12:18:41;2.10;;;0.60;;
15818;SDS011;8010;53.986;12.106;2022-10-16T12:21:11;1.27;;;0.50;;
15818;SDS011;8010;53.986;12.106;2022-10-16T12:23:51;1.10;;;0.60;;
15818;SDS011;8010;53.986;12.106;2022-10-16T12:26:25;3.17;;;0.53;;
15818;SDS011;8010;53.986;12.106;2022-10-16T12:29:09;1.10;;;0.50;;
15818;SDS011;8010;53.986;12.106;2022-10-16T12:31:42;0.50;;;0.43;;
15818;SDS011;8010;53.986;12.106;2022-10-16T12:37:08;3.47;;;0.67;;
15818;SDS011;8010;53.986;12.106;2022-10-16T12:39:36;1.13;;;0.53;;
15818;SDS011;8010;53.986;12.106;2022-10-16T12:42:04;0.93;;;0.37;;
15818;SDS011;8010;53.986;12.106;2022-10-16T12:44:32;2.00;;;0.40;;
15818;SDS011;8010;53.986;12.106;2022-10-16T12:47:01;3.63;;;0.43;;
15818;SDS011;8010;53.986;12.106;2022-10-16T12:51:53;2.40;;;0.43;;
15818;SDS011;8010;53.986;12.106;2022-10-16T12:54:21;0.73;;;0.23;;
15818;SDS011;8010;53.986;12.106;2022-10-16T12:59:53;2.37;;;0.60;;
15818;SDS011;8010;53.986;12.106;2022-10-16T13:08:00;3.03;;;0.60;;
15818;SDS011;8010;53.986;12.106;2022-10-16T13:10:46;0.53;;;0.40;;
15818;SDS011;8010;53.986;12.106;2022-10-16T13:16:32;1.30;;;0.53;;
15818;SDS011;8010;53.986;12.106;2022-10-16T13:22:21;3.10;;;0.60;;
15818;SDS011;8010;53.986;12.106;2022-10-16T13:25:16;1.87;;;0.70;;
15818;SDS011;8010;53.986;12.106;2022-10-16T13:28:02;1.57;;;0.60;;
15818;SDS011;8010;53.986;12.106;2022-10-16T13:30:31;1.13;;;0.47;;
15818;SDS011;8010;53.986;12.106;2022-10-16T13:33:07;2.47;;;0.43;;
15818;SDS011;8010;53.986;12.106;2022-10-16T13:35:46;2.70;;;0.50;;
15818;SDS011;8010;53.986;12.106;2022-10-16T13:38:14;3.40;;;0.50;;
15818;SDS011;8010;53.986;12.106;2022-10-16T13:40:48;3.07;;;0.50;;
15818;SDS011;8010;53.986;12.106;2022-10-16T13:43:18;1.57;;;0.40;;
15818;SDS011;8010;53.986;12.106;2022-10-16T13:45:57;1.83;;;0.77;;
15818;SDS011;8010;53.986;12.106;2022-10-16T13:48:31;1.97;;;0.40;;
15818;SDS011;8010;53.986;12.106;2022-10-16T13:50:58;0.70;;;0.40;;
15818;SDS011;8010;53.986;12.106;2022-10-16T13:53:25;0.87;;;0.40;;
15818;SDS011;8010;53.986;12.106;2022-10-16T13:55:50;2.90;;;0.60;;
15818;SDS011;8010;53.986;12.106;2022-10-16T13:58:16;1.40;;;0.47;;
15818;SDS011;8010;53.986;12.106;2022-10-16T14:01:03;2.57;;;0.50;;
15818;SDS011;8010;53.986;12.106;2022-10-16T14:03:39;1.97;;;0.40;;
15818;SDS011;8010;53.986;12.106;2022-10-16T14:06:06;2.07;;;0.40;;
15818;SDS011;8010;53.986;12.106;2022-10-16T14:08:40;1.47;;;0.57;;
15818;SDS011;8010;53.986;12.106;2022-10-16T14:11:08;2.17;;;0.40;;
15818;SDS011;8010;53.986;12.106;2022-10-16T14:13:36;4.43;;;0.90;;
15818;SDS011;8010;53.986;12.106;2022-10-16T14:16:07;1.43;;;0.50;;
15818;SDS011;8010;53.986;12.106;2022-10-16T14:18:35;2.13;;;0.50;;
15818;SDS011;8010;53.986;12.106;2022-10-16T14:21:04;4.33;;;0.40;;
15818;SDS011;8010;53.986;12.106;2022-10-16T14:23:39;1.17;;;0.50;;
15818;SDS011;8010;53.986;12.106;2022-10-16T14:28:35;2.10;;;0.60;;
15818;SDS011;8010;53.986;12.106;2022-10-16T14:33:56;2.03;;;0.57;;
15818;SDS011;8010;53.986;12.106;2022-10-16T14:36:22;1.20;;;0.70;;
15818;SDS011;8010;53.986;12.106;2022-10-16T14:41:27;2.73;;;0.37;;
15818;SDS011;8010;53.986;12.106;2022-10-16T14:43:54;2.13;;;0.50;;
15818;SDS011;8010;53.986;12.106;2022-10-16T14:46:23;0.60;;;0.40;;
15818;SDS011;8010;53.986;12.106;2022-10-16T14:48:59;1.37;;;0.57;;
15818;SDS011;8010;53.986;12.106;2022-10-16T14:51:38;5.97;;;0.83;;
15818;SDS011;8010;53.986;12.106;2022-10-16T14:54:09;2.43;;;0.60;;
15818;SDS011;8010;53.986;12.106;2022-10-16T14:56:43;4.47;;;0.60;;
15818;SDS011;8010;53.986;12.106;2022-10-16T14:59:14;2.50;;;0.70;;
15818;SDS011;8010;53.986;12.106;2022-10-16T15:01:44;2.60;;;0.83;;
15818;SDS011;8010;53.986;12.106;2022-10-16T15:04:11;2.13;;;0.73;;
15818;SDS011;8010;53.986;12.106;2022-10-16T15:06:38;2.33;;;0.77;;
15818;SDS011;8010;53.986;12.106;2022-10-16T15:09:04;2.37;;;0.70;;
15818;SDS011;8010;53.986;12.106;2022-10-16T15:11:29;1.70;;;0.60;;
15818;SDS011;8010;53.986;12.106;2022-10-16T15:13:57;5.00;;;0.87;;
15818;SDS011;8010;53.986;12.106;2022-10-16T15:16:23;1.77;;;0.37;;
15818;SDS011;8010;53.986;12.106;2022-10-16T15:18:49;2.50;;;0.50;;
15818;SDS011;8010;53.986;12.106;2022-10-16T15:21:25;0.80;;;0.50;;
15818;SDS011;8010;53.986;12.106;2022-10-16T15:23:55;2.60;;;0.60;;
15818;SDS011;8010;53.986;12.106;2022-10-16T15:26:22;3.57;;;0.47;;
15818;SDS011;8010;53.986;12.106;2022-10-16T15:28:51;2.60;;;0.70;;
15818;SDS011;8010;53.986;12.106;2022-10-16T15:31:17;2.87;;;0.67;;
15818;SDS011;8010;53.986;12.106;2022-10-16T15:33:43;0.97;;;0.57;;
15818;SDS011;8010;53.986;12.106;2022-10-16T15:36:12;3.80;;;0.97;;
15818;SDS011;8010;53.986;12.106;2022-10-16T15:38:38;3.17;;;0.43;;
15818;SDS011;8010;53.986;12.106;2022-10-16T15:41:03;5.13;;;0.60;;
15818;SDS011;8010;53.986;12.106;2022-10-16T15:43:29;0.60;;;0.40;;
15818;SDS011;8010;53.986;12.106;2022-10-16T15:45:59;2.00;;;0.60;;
15818;SDS011;8010;53.986;12.106;2022-10-16T15:48:30;5.03;;;0.87;;
15818;SDS011;8010;53.986;12.106;2022-10-16T15:50:55;1.33;;;0.50;;
15818;SDS011;8010;53.986;12.106;2022-10-16T15:53:21;1.20;;;0.57;;
15818;SDS011;8010;53.986;12.106;2022-10-16T15:55:47;2.40;;;0.60;;
15818;SDS011;8010;53.986;12.106;2022-10-16T15:58:12;2.37;;;0.70;;
15818;SDS011;8010;53.986;12.106;2022-10-16T16:00:38;3.87;;;0.63;;
15818;SDS011;8010;53.986;12.106;2022-10-16T16:03:04;1.60;;;0.80;;
15818;SDS011;8010;53.986;12.106;2022-10-16T16:05:29;1.73;;;0.60;;
15818;SDS011;8010;53.986;12.106;2022-10-16T16:07:56;1.67;;;0.50;;
15818;SDS011;8010;53.986;12.106;2022-10-16T16:10:22;1.67;;;0.60;;
15818;SDS011;8010;53.986;12.106;2022-10-16T16:12:47;2.67;;;0.77;;
15818;SDS011;8010;53.986;12.106;2022-10-16T16:15:18;3.20;;;0.60;;
15818;SDS011;8010;53.986;12.106;2022-10-16T16:17:45;1.83;;;0.50;;
15818;SDS011;8010;53.986;12.106;2022-10-16T16:20:11;1.93;;;0.57;;
15818;SDS011;8010;53.986;12.106;2022-10-16T16:22:37;1.57;;;0.77;;
15818;SDS011;8010;53.986;12.106;2022-10-16T16:25:02;4.40;;;0.43;;
15818;SDS011;8010;53.986;12.106;2022-10-16T16:27:28;3.13;;;0.63;;